createdAt,value
2022-09-07T00:01:40.034Z,3.10
2022-09-07T00:04:30.191Z,2.90
2022-09-07T00:07:19.945Z,2.80
2022-09-07T00:10:11.481Z,2.90
2022-09-07T00:13:01.193Z,3.30
2022-09-07T00:15:51.118Z,3.00
2022-09-07T00:18:45.602Z,2.80
2022-09-07T00:21:36.552Z,2.90
2022-09-07T00:24:26.504Z,3.10
2022-09-07T00:27:16.367Z,2.70
2022-09-07T00:30:07.261Z,3.10
2022-09-07T00:32:57.521Z,3.20
2022-09-07T00:35:48.192Z,3.30
2022-09-07T00:38:38.555Z,3.00
2022-09-07T00:41:29.067Z,2.90
2022-09-07T00:44:53.944Z,3.00
2022-09-07T00:47:53.241Z,3.00
2022-09-07T00:50:47.692Z,3.20
2022-09-07T00:53:41.735Z,2.90
2022-09-07T00:56:34.507Z,2.80
2022-09-07T00:59:28.152Z,3.00
2022-09-07T01:02:18.918Z,3.20
2022-09-07T01:05:16.951Z,3.20
2022-09-07T01:08:07.584Z,2.80
2022-09-07T01:10:59.235Z,3.00
2022-09-07T01:13:54.632Z,3.00
2022-09-07T01:17:00.127Z,2.90
2022-09-07T01:20:32.283Z,3.10
2022-09-07T01:23:53.831Z,3.10
2022-09-07T01:27:09.274Z,3.30
2022-09-07T01:30:06.356Z,3.00
2022-09-07T01:33:10.177Z,2.90
2022-09-07T01:36:12.952Z,3.40
2022-09-07T01:39:05.845Z,3.00
2022-09-07T01:41:59.654Z,3.20
2022-09-07T01:44:54.488Z,3.20
2022-09-07T01:47:48.950Z,3.00
2022-09-07T01:50:45.534Z,3.30
2022-09-07T01:53:39.632Z,3.20
2022-09-07T01:56:36.255Z,3.30
2022-09-07T01:59:30.464Z,3.20
2022-09-07T02:02:23.283Z,3.30
2022-09-07T02:05:18.599Z,3.20
2022-09-07T02:08:14.599Z,3.30
2022-09-07T02:11:08.717Z,3.00
2022-09-07T02:14:03.033Z,3.20
2022-09-07T02:16:58.234Z,3.00
2022-09-07T02:19:52.283Z,3.60
2022-09-07T02:22:45.594Z,3.10
2022-09-07T02:25:41.883Z,3.20
2022-09-07T02:28:34.444Z,3.10
2022-09-07T02:31:24.418Z,3.50
2022-09-07T02:34:14.557Z,3.20
2022-09-07T02:37:07.657Z,3.20
2022-09-07T02:39:58.274Z,3.10
2022-09-07T02:42:49.952Z,3.00
2022-09-07T02:45:56.463Z,3.10
2022-09-07T02:49:01.711Z,3.20
2022-09-07T02:52:03.987Z,3.00
2022-09-07T02:55:08.341Z,3.30
2022-09-07T02:58:15.351Z,3.20
2022-09-07T03:01:16.442Z,2.90
2022-09-07T03:04:14.758Z,3.20
2022-09-07T03:07:11.346Z,3.00
2022-09-07T03:10:03.905Z,3.10
2022-09-07T03:12:53.521Z,3.20
2022-09-07T03:15:43.524Z,3.30
2022-09-07T03:18:33.281Z,3.40
2022-09-07T03:21:22.859Z,3.00
2022-09-07T03:24:13.643Z,3.30
2022-09-07T03:27:03.370Z,3.30
2022-09-07T03:29:53.607Z,3.00
2022-09-07T03:32:43.263Z,3.50
2022-09-07T03:35:32.837Z,3.20
2022-09-07T03:38:22.351Z,3.20
2022-09-07T03:41:12.854Z,3.00
2022-09-07T03:44:07.749Z,3.30
2022-09-07T03:46:57.632Z,3.30
2022-09-07T03:49:49.068Z,3.40
2022-09-07T03:52:39.679Z,3.40
2022-09-07T03:55:29.666Z,3.40
2022-09-07T03:58:19.412Z,3.40
2022-09-07T04:01:11.236Z,3.30
2022-09-07T04:04:02.969Z,3.20
2022-09-07T04:06:52.752Z,3.00
2022-09-07T04:09:42.740Z,3.40
2022-09-07T04:12:32.322Z,3.70
2022-09-07T04:15:22.066Z,3.50
2022-09-07T04:18:11.811Z,3.50
2022-09-07T04:21:02.604Z,3.60
2022-09-07T04:23:52.784Z,3.30
2022-09-07T04:26:43.693Z,3.20
2022-09-07T04:29:34.082Z,3.30
2022-09-07T04:32:23.799Z,3.40
2022-09-07T04:35:14.274Z,3.30
2022-09-07T04:38:04.463Z,3.50
2022-09-07T04:41:01.958Z,3.50
2022-09-07T04:43:56.171Z,3.20
2022-09-07T04:46:46.052Z,3.60
2022-09-07T04:49:35.826Z,3.30
2022-09-07T04:52:26.248Z,3.20
2022-09-07T04:55:16.704Z,3.50
2022-09-07T04:58:06.847Z,3.40
2022-09-07T05:00:56.940Z,3.30
2022-09-07T05:03:47.806Z,2.90
2022-09-07T05:06:37.872Z,3.70
2022-09-07T05:09:27.507Z,3.20
2022-09-07T05:12:16.954Z,3.30
2022-09-07T05:15:07.922Z,3.90
2022-09-07T05:17:57.477Z,3.10
2022-09-07T05:20:47.786Z,3.10
2022-09-07T05:23:38.075Z,3.40
2022-09-07T05:26:30.224Z,3.40
2022-09-07T05:32:30.011Z,3.10
2022-09-07T05:35:20.479Z,3.30
2022-09-07T05:38:10.446Z,3.00
2022-09-07T05:41:00.951Z,3.30
2022-09-07T05:47:01.122Z,3.80
2022-09-07T05:49:51.986Z,3.60
2022-09-07T05:52:46.134Z,3.80
2022-09-07T05:55:35.960Z,3.50
2022-09-07T05:58:26.086Z,4.00
2022-09-07T06:01:16.080Z,4.60
2022-09-07T06:04:05.849Z,3.90
2022-09-07T06:07:21.490Z,3.70
2022-09-07T06:13:16.513Z,3.10
2022-09-07T06:16:08.406Z,3.20
2022-09-07T06:18:58.841Z,3.30
2022-09-07T06:21:48.693Z,3.30
2022-09-07T06:24:38.299Z,3.40
2022-09-07T06:27:28.398Z,3.20
2022-09-07T06:30:18.501Z,3.60
2022-09-07T06:33:08.331Z,3.50
2022-09-07T06:36:03.371Z,4.00
2022-09-07T06:38:55.169Z,4.10
2022-09-07T06:42:00.755Z,7.60
2022-09-07T06:44:52.694Z,6.30
2022-09-07T06:47:42.440Z,5.50
2022-09-07T06:50:33.696Z,5.20
2022-09-07T06:56:21.495Z,4.10
2022-09-07T06:59:11.171Z,4.20
2022-09-07T07:02:00.694Z,3.80
2022-09-07T07:04:51.155Z,4.20
2022-09-07T07:07:41.453Z,3.70
2022-09-07T07:10:31.665Z,4.30
2022-09-07T07:16:12.907Z,4.40
2022-09-07T07:19:03.329Z,3.60
2022-09-07T07:22:23.753Z,3.90
2022-09-07T07:25:02.459Z,4.10
2022-09-07T07:27:52.392Z,4.20
2022-09-07T07:30:42.949Z,4.30
2022-09-07T07:33:35.376Z,4.50
2022-09-07T07:36:27.116Z,4.80
2022-09-07T07:42:27.458Z,4.40
2022-09-07T07:48:27.620Z,3.60
2022-09-07T07:51:17.769Z,3.50
2022-09-07T07:54:07.862Z,3.30
2022-09-07T07:56:57.477Z,3.30
2022-09-07T07:59:47.437Z,3.60
2022-09-07T08:02:37.075Z,3.50
2022-09-07T08:05:27.340Z,3.70
2022-09-07T08:08:17.402Z,3.40
2022-09-07T08:11:09.751Z,3.20
2022-09-07T08:14:01.412Z,2.80
2022-09-07T08:16:51.177Z,2.60
2022-09-07T08:19:41.129Z,2.30
2022-09-07T08:22:34.298Z,2.10
2022-09-07T08:25:25.404Z,2.40
2022-09-07T08:28:15.181Z,2.30
2022-09-07T08:31:09.316Z,2.40
2022-09-07T08:33:58.633Z,2.60
2022-09-07T08:36:48.477Z,2.90
2022-09-07T08:39:38.710Z,2.60
2022-09-07T08:42:51.881Z,2.30
2022-09-07T08:45:45.232Z,2.50
2022-09-07T08:48:36.514Z,2.80
2022-09-07T08:51:34.710Z,3.10
2022-09-07T08:54:24.468Z,2.80
2022-09-07T08:57:24.177Z,3.10
2022-09-07T09:00:17.812Z,2.70
2022-09-07T09:03:31.058Z,2.90
2022-09-07T09:06:30.620Z,2.80
2022-09-07T09:09:30.058Z,3.10
2022-09-07T09:12:36.884Z,3.30
2022-09-07T09:15:37.115Z,4.20
2022-09-07T09:18:45.278Z,3.90
2022-09-07T09:21:36.919Z,2.80
2022-09-07T09:24:36.316Z,2.40
2022-09-07T09:27:25.988Z,2.60
2022-09-07T09:30:18.811Z,2.50
2022-09-07T09:33:20.686Z,2.50
2022-09-07T09:36:32.624Z,2.10
2022-09-07T09:39:31.586Z,2.30
2022-09-07T09:42:30.852Z,2.10
2022-09-07T09:45:26.843Z,2.20
2022-09-07T09:48:22.915Z,2.30
2022-09-07T09:54:33.078Z,2.30
2022-09-07T10:04:30.478Z,2.40
2022-09-07T10:07:23.419Z,2.60
2022-09-07T10:10:18.525Z,2.20
2022-09-07T10:13:20.816Z,2.60
2022-09-07T10:16:12.636Z,2.40
2022-09-07T10:19:03.224Z,2.60
2022-09-07T10:21:59.128Z,2.70
2022-09-07T10:24:49.506Z,3.10
2022-09-07T10:27:41.310Z,2.60
2022-09-07T10:30:41.876Z,3.00
2022-09-07T10:33:43.571Z,2.30
2022-09-07T10:36:44.072Z,2.60
2022-09-07T10:39:39.410Z,2.60
2022-09-07T10:42:33.953Z,2.60
2022-09-07T10:45:32.494Z,2.60
2022-09-07T10:48:33.611Z,2.80
2022-09-07T10:51:29.560Z,2.70
2022-09-07T10:54:31.619Z,2.80
2022-09-07T10:57:42.147Z,2.60
2022-09-07T11:00:44.640Z,2.50
2022-09-07T11:03:52.312Z,2.60
2022-09-07T11:06:47.220Z,2.60
2022-09-07T11:09:55.915Z,2.40
2022-09-07T11:12:46.901Z,2.50
2022-09-07T11:15:42.423Z,2.70
2022-09-07T11:18:36.925Z,2.40
2022-09-07T11:28:09.658Z,2.40
2022-09-07T11:31:03.777Z,3.10
2022-09-07T11:37:16.173Z,2.40
2022-09-07T11:40:13.864Z,2.70
2022-09-07T11:43:14.104Z,2.90
2022-09-07T11:46:07.767Z,2.80
2022-09-07T11:48:59.091Z,2.40
2022-09-07T11:51:54.134Z,2.50
2022-09-07T11:54:50.517Z,2.80
2022-09-07T11:57:58.557Z,2.90
2022-09-07T12:00:57.135Z,2.70
2022-09-07T12:04:25.072Z,2.60
2022-09-07T12:07:39.640Z,3.00
2022-09-07T12:10:55.063Z,2.50
2022-09-07T12:14:04.022Z,2.50
2022-09-07T12:17:16.563Z,2.80
2022-09-07T12:20:17.977Z,2.90
2022-09-07T12:23:21.428Z,2.60
2022-09-07T12:26:50.598Z,2.60
2022-09-07T12:29:45.091Z,2.60
2022-09-07T12:33:19.944Z,2.60
2022-09-07T12:36:50.625Z,3.10
2022-09-07T12:39:44.123Z,2.50
2022-09-07T12:42:34.333Z,2.60
2022-09-07T12:46:00.878Z,2.80
2022-09-07T12:49:01.596Z,2.60
2022-09-07T12:52:06.845Z,2.60
2022-09-07T12:55:27.918Z,2.30
2022-09-07T12:58:32.884Z,2.70
2022-09-07T13:01:36.791Z,2.60
2022-09-07T13:04:56.311Z,2.40
2022-09-07T13:08:30.376Z,2.40
2022-09-07T13:11:33.010Z,2.50
2022-09-07T13:14:26.868Z,2.50
2022-09-07T13:17:41.645Z,2.70
2022-09-07T13:20:37.577Z,2.70
2022-09-07T13:23:30.028Z,2.70
2022-09-07T13:26:57.810Z,2.50
2022-09-07T13:29:53.294Z,2.70
2022-09-07T13:35:56.745Z,2.80
2022-09-07T13:38:47.721Z,2.80
2022-09-07T13:41:44.093Z,2.80
2022-09-07T13:44:35.885Z,2.70
2022-09-07T13:47:36.708Z,3.20
2022-09-07T13:50:37.882Z,2.90
2022-09-07T13:53:39.071Z,3.10
2022-09-07T13:56:41.252Z,3.20
2022-09-07T13:59:35.423Z,3.30
2022-09-07T14:02:29.419Z,3.10
2022-09-07T14:05:22.833Z,3.40
2022-09-07T14:08:28.540Z,3.00
2022-09-07T14:11:24.662Z,3.40
2022-09-07T14:14:21.119Z,3.20
2022-09-07T14:17:15.398Z,2.90
2022-09-07T14:20:07.412Z,3.00
2022-09-07T14:22:57.305Z,3.00
2022-09-07T14:28:58.146Z,3.10
2022-09-07T14:31:48.037Z,2.60
2022-09-07T14:34:39.398Z,3.00
2022-09-07T14:37:29.737Z,4.40
2022-09-07T14:40:23.237Z,3.10
2022-09-07T14:43:29.993Z,3.00
2022-09-07T14:46:22.681Z,3.20
2022-09-07T14:49:22.093Z,2.90
2022-09-07T14:52:21.323Z,3.10
2022-09-07T14:55:30.980Z,3.00
2022-09-07T14:58:31.385Z,3.00
2022-09-07T15:01:40.328Z,3.40
2022-09-07T15:04:34.546Z,2.90
2022-09-07T15:07:41.083Z,3.30
2022-09-07T15:10:35.360Z,2.70
2022-09-07T15:13:32.385Z,3.10
2022-09-07T15:16:27.036Z,2.80
2022-09-07T15:19:32.088Z,2.90
2022-09-07T15:22:22.670Z,3.00
2022-09-07T15:25:15.075Z,3.00
2022-09-07T15:28:05.852Z,2.70
2022-09-07T15:34:10.033Z,2.90
2022-09-07T15:37:01.739Z,2.60
2022-09-07T15:39:53.014Z,2.50
2022-09-07T15:45:53.496Z,2.60
2022-09-07T15:48:52.359Z,2.50
2022-09-07T15:54:56.703Z,2.50
2022-09-07T15:57:48.755Z,2.60
2022-09-07T16:00:40.439Z,2.60
2022-09-07T16:03:33.825Z,2.60
2022-09-07T16:06:24.816Z,3.20
2022-09-07T16:09:15.228Z,2.90
2022-09-07T16:15:16.659Z,3.20
2022-09-07T16:18:06.865Z,3.30
2022-09-07T16:20:56.700Z,3.10
2022-09-07T16:23:48.832Z,6.80
2022-09-07T16:26:38.585Z,3.90
2022-09-07T16:29:28.628Z,3.10
2022-09-07T16:35:28.683Z,3.00
2022-09-07T16:41:31.409Z,2.90
2022-09-07T16:44:21.593Z,3.50
2022-09-07T16:47:12.864Z,2.90
2022-09-07T16:50:02.581Z,3.00
2022-09-07T16:52:53.480Z,3.10
2022-09-07T16:55:43.323Z,3.10
2022-09-07T16:58:36.007Z,3.00
2022-09-07T17:01:28.429Z,3.00
2022-09-07T17:04:19.100Z,3.40
2022-09-07T17:07:08.798Z,3.70
2022-09-07T17:09:58.762Z,3.10
2022-09-07T17:12:50.151Z,3.20
2022-09-07T17:15:39.994Z,3.10
2022-09-07T17:21:41.887Z,3.20
2022-09-07T17:24:32.552Z,3.20
2022-09-07T17:27:22.418Z,3.20
2022-09-07T17:30:14.022Z,3.20
2022-09-07T17:33:04.136Z,3.20
2022-09-07T17:35:55.245Z,3.20
2022-09-07T17:41:55.467Z,3.20
2022-09-07T17:44:44.999Z,3.20
2022-09-07T17:47:34.658Z,3.50
2022-09-07T17:50:24.452Z,3.50
2022-09-07T17:53:14.669Z,3.50
2022-09-07T17:56:05.094Z,3.10
2022-09-07T18:00:10.743Z,3.60
2022-09-07T18:02:05.204Z,2.90
2022-09-07T18:04:55.321Z,3.30
2022-09-07T18:07:45.148Z,3.20
2022-09-07T18:13:51.714Z,3.20
2022-09-07T18:16:41.698Z,3.20
2022-09-07T18:19:31.753Z,3.20
2022-09-07T18:22:21.655Z,3.80
2022-09-07T18:25:12.468Z,3.30
2022-09-07T18:31:13.605Z,3.10
2022-09-07T18:34:04.132Z,3.20
2022-09-07T18:36:55.234Z,3.10
2022-09-07T18:39:47.042Z,3.30
2022-09-07T18:42:36.474Z,2.80
2022-09-07T18:45:27.563Z,3.10
2022-09-07T18:48:18.286Z,3.30
2022-09-07T18:51:09.788Z,3.10
2022-09-07T18:54:00.200Z,3.00
2022-09-07T18:56:49.978Z,3.40
2022-09-07T18:59:41.017Z,3.10
2022-09-07T19:02:31.138Z,3.20
2022-09-07T19:08:35.468Z,3.20
2022-09-07T19:11:27.966Z,3.30
2022-09-07T19:14:17.813Z,2.90
2022-09-07T19:17:08.516Z,3.00
2022-09-07T19:19:58.155Z,2.60
2022-09-07T19:22:47.895Z,2.90
2022-09-07T19:25:42.758Z,2.90
2022-09-07T19:28:33.126Z,3.30
2022-09-07T19:31:23.658Z,3.00
2022-09-07T19:34:14.223Z,3.00
2022-09-07T19:37:05.122Z,3.10
2022-09-07T19:39:55.428Z,3.30
2022-09-07T19:42:45.383Z,3.20
2022-09-07T19:45:38.001Z,3.20
2022-09-07T19:48:28.061Z,3.10
2022-09-07T19:51:19.941Z,3.40
2022-09-07T19:54:09.879Z,2.90
2022-09-07T19:56:59.599Z,3.00
2022-09-07T19:59:49.556Z,2.90
2022-09-07T20:02:39.224Z,2.80
2022-09-07T20:05:31.109Z,2.80
2022-09-07T20:08:21.447Z,3.00
2022-09-07T20:11:13.420Z,2.80
2022-09-07T20:14:03.858Z,3.10
2022-09-07T20:16:53.521Z,2.80
2022-09-07T20:19:43.306Z,2.60
2022-09-07T20:22:32.884Z,2.80
2022-09-07T20:25:23.202Z,3.20
2022-09-07T20:28:14.742Z,2.70
2022-09-07T20:31:08.397Z,2.80
2022-09-07T20:33:58.232Z,2.90
2022-09-07T20:36:49.813Z,3.00
2022-09-07T20:39:40.408Z,2.60
2022-09-07T20:42:30.930Z,2.80
2022-09-07T20:45:20.776Z,2.80
2022-09-07T20:48:10.784Z,2.80
2022-09-07T20:51:06.623Z,2.90
2022-09-07T20:53:56.862Z,3.00
2022-09-07T20:56:46.204Z,3.00
2022-09-07T20:59:36.314Z,2.70
2022-09-07T21:02:26.121Z,2.70
2022-09-07T21:05:16.225Z,2.70
2022-09-07T21:08:05.919Z,2.60
2022-09-07T21:10:56.285Z,2.60
2022-09-07T21:13:46.783Z,2.70
2022-09-07T21:16:37.131Z,3.10
2022-09-07T21:19:26.681Z,2.70
2022-09-07T21:22:16.514Z,3.00
2022-09-07T21:25:07.031Z,2.60
2022-09-07T21:27:57.361Z,3.20
2022-09-07T21:30:56.031Z,2.90
2022-09-07T21:33:45.930Z,3.30
2022-09-07T21:36:35.717Z,2.80
2022-09-07T21:39:25.476Z,2.80
2022-09-07T21:42:15.743Z,3.00
2022-09-07T21:45:07.085Z,3.10
2022-09-07T21:47:56.529Z,3.00
2022-09-07T21:50:46.964Z,3.30
2022-09-07T21:53:37.488Z,3.40
2022-09-07T21:56:28.218Z,3.70
2022-09-07T21:59:18.190Z,2.80
2022-09-07T22:02:08.234Z,2.60
2022-09-07T22:04:57.819Z,2.80
2022-09-07T22:07:47.408Z,2.90
2022-09-07T22:10:38.184Z,2.70
2022-09-07T22:13:27.975Z,3.00
2022-09-07T22:16:18.220Z,3.10
2022-09-07T22:19:08.753Z,2.70
2022-09-07T22:21:58.557Z,2.90
2022-09-07T22:24:48.720Z,2.50
2022-09-07T22:27:38.955Z,3.10
2022-09-07T22:30:28.702Z,2.90
2022-09-07T22:33:19.018Z,3.30
2022-09-07T22:36:15.250Z,2.80
2022-09-07T22:39:09.963Z,2.80
2022-09-07T22:42:00.041Z,2.80
2022-09-07T22:44:50.084Z,3.10
2022-09-07T22:47:40.006Z,3.10
2022-09-07T22:50:29.921Z,3.00
2022-09-07T22:53:19.935Z,2.90
2022-09-07T22:56:12.554Z,2.90
2022-09-07T22:59:03.612Z,2.70
2022-09-07T23:01:53.694Z,2.90
2022-09-07T23:04:43.921Z,2.80
2022-09-07T23:07:34.133Z,3.30
2022-09-07T23:10:23.884Z,3.00
2022-09-07T23:13:16.812Z,3.00
2022-09-07T23:16:11.086Z,2.90
2022-09-07T23:19:02.218Z,2.60
2022-09-07T23:21:52.022Z,3.00
2022-09-07T23:24:41.971Z,2.70
2022-09-07T23:27:31.800Z,2.70
2022-09-07T23:30:22.022Z,3.10
2022-09-07T23:33:11.961Z,2.80
2022-09-07T23:36:04.225Z,2.80
2022-09-07T23:38:57.000Z,2.70
2022-09-07T23:41:46.805Z,3.10
2022-09-07T23:44:36.966Z,2.70
2022-09-07T23:47:27.353Z,2.80
2022-09-07T23:50:16.802Z,2.80
2022-09-07T23:53:07.180Z,2.70
2022-09-07T23:55:57.178Z,2.70
2022-09-07T23:58:47.244Z,2.70
